Latest Weather Observations for Sydney Airport

IDN60801

Issued at 1:03 pm EST Tuesday 4 August 2015 (issued every 30 minutes, with the page automatically refreshed every 10 minutes)

About weather observations | Map of weather stations | Latest weather observations for NSW | Other Formats
Station Details ID: 066037 Name: SYDNEY AIRPORT AMO Lat: -33.95 Lon: 151.17 Height: 6.0 m
Data from the previous 72 hours. | See also: Recent months at Sydney Airport
Date/Time
EST
Temp
°C
App
Temp
°C
Dew
Point
Rel
Hum
%
Delta-T
°C
Wind Press
QNH
hPa
Press
MSL
hPa
Rain
since 9 am
mm
Dir
 
Spd
km/h
Gust
km/h
Spd
kts
Gust
kts
04/12:30pm 11.9 8.4 1.2 48 4.5 SW 9 11 5 6 1021.1 1021.1 0.0
04/12:00pm 11.8 8.3 1.3 48 4.4 SW 9 15 5 8 1021.8 1021.8 0.0
04/11:30am 12.3 8.5 2.0 49 4.4 W 11 17 6 9 1022.1 1022.1 0.0
04/11:00am 12.8 7.6 0.2 42 5.2 WNW 17 24 9 13 1022.7 1022.7 0.0
04/10:30am 12.1 7.2 -0.2 42 5.0 WNW 15 24 8 13 1023.0 1023.0 0.0
04/10:00am 11.2 6.4 0.1 46 4.5 W 15 24 8 13 1023.2 1023.2 0.0
04/09:30am 9.9 4.7 0.2 51 3.9 W 17 28 9 15 1023.0 1023.0 0.0
04/09:00am 9.9 5.2 0.8 53 3.7 W 15 20 8 11 1022.9 1022.9 0.0
04/08:30am 8.9 3.3 1.0 57 3.2 W 20 28 11 15 1022.8 1022.8 0.0
04/08:00am 9.6 4.0 0.1 51 3.8 W 19 24 10 13 1022.8 1022.8 0.0
04/07:30am 9.0 3.8 0.2 54 3.5 W 17 24 9 13 1022.6 1022.6 0.0
04/07:00am 9.4 3.8 0.1 52 3.7 W 19 26 10 14 1022.3 1022.3 0.0
04/06:30am 8.8 3.6 0.2 55 3.4 W 17 28 9 15 1022.0 1022.0 0.0
04/06:00am 8.7 2.9 0.1 55 3.4 WSW 20 26 11 14 1021.9 1021.9 0.0
04/05:30am 8.8 3.0 -0.1 53 3.5 WSW 20 26 11 14 1021.8 1021.8 0.0
04/05:00am 8.9 3.7 0.1 54 3.5 WSW 17 20 9 11 1021.9 1021.9 0.0
04/04:30am 9.1 3.4 0.3 54 3.5 SW 20 26 11 14 1021.7 1021.7 0.0
04/04:00am 9.1 3.9 0.3 54 3.5 WSW 17 22 9 12 1021.6 1021.6 0.0
04/03:30am 9.1 2.9 -0.3 52 3.7 WSW 22 30 12 16 1021.6 1021.6 0.0
04/03:00am 9.1 2.9 0.0 53 3.6 WSW 22 28 12 15 1021.6 1021.6 0.0
04/02:30am 9.3 3.6 -0.4 50 3.8 WSW 19 26 10 14 1021.5 1021.5 0.0
04/02:00am 9.4 3.5 -0.5 50 3.9 WSW 20 26 11 14 1021.6 1021.6 0.0
04/01:30am 9.3 3.5 0.0 52 3.7 WSW 20 26 11 14 1021.5 1021.5 0.0
04/01:00am 8.8 3.8 1.2 59 3.1 W 17 20 9 11 1021.6 1021.6 0.0
04/12:30am 9.4 4.9 2.0 60 3.1 WSW 15 19 8 10 1021.7 1021.7 0.0
04/12:00am 9.6 4.6 1.6 57 3.3 WSW 17 20 9 11 1021.7 1021.7 0.0
 
Date/Time
EST
Temp
°C
App
Temp
°C
Dew
Point
Rel
Hum
%
Delta-T
°C
Wind Press
QNH
hPa
Press
MSL
hPa
Rain
since 9 am
mm
Dir
 
Spd
km/h
Gust
km/h
Spd
kts
Gust
kts
03/11:30pm 10.0 5.0 1.6 56 3.5 WSW 17 26 9 14 1021.7 1021.7 0.0
03/11:00pm 10.2 5.4 2.4 58 3.3 WSW 17 19 9 10 1021.5 1021.5 0.0
03/10:30pm 10.5 5.7 2.5 57 3.4 SW 17 22 9 12 1021.2 1021.2 0.0
03/10:00pm 10.8 5.5 2.1 55 3.7 WSW 19 35 10 19 1021.3 1021.3 0.0
03/09:30pm 11.1 5.9 2.7 56 3.6 WSW 19 26 10 14 1021.3 1021.3 0.0
03/09:00pm 12.0 7.0 3.4 55 3.8 SSW 19 24 10 13 1021.0 1021.0 0.0
03/08:30pm 12.2 6.0 1.9 49 4.4 WSW 24 30 13 16 1020.5 1020.5 0.0
03/08:00pm 12.4 5.4 1.9 48 4.5 WSW 28 37 15 20 1019.9 1019.9 0.0
03/07:30pm 12.8 5.7 1.5 46 4.8 WSW 28 37 15 20 1019.5 1019.5 0.0
03/07:00pm 13.3 6.0 0.0 40 5.5 W 28 33 15 18 1018.9 1018.9 0.0
03/06:30pm 13.8 6.1 -0.2 38 5.8 W 30 37 16 20 1018.3 1018.3 0.0
03/06:00pm 14.2 6.2 0.5 39 5.8 W 32 48 17 26 1017.6 1017.6 0.0
03/05:50pm 14.2 6.5 0.1 38 5.9 W 30 48 16 26 1017.6 1017.6 0.0
03/05:30pm 14.6 6.4 0.1 37 6.1 W 33 44 18 24 1017.1 1017.1 0.0
03/05:00pm 14.8 5.4 -0.3 35 6.3 W 39 54 21 29 1016.7 1016.7 0.0
03/04:30pm 15.5 5.3 -0.5 33 6.7 W 43 54 23 29 1016.0 1016.0 0.0
03/04:00pm 16.7 7.3 0.2 32 7.1 WSW 39 50 21 27 1015.0 1015.0 0.0
03/03:30pm 17.0 8.0 0.4 32 7.2 WSW 37 48 20 26 1014.4 1014.4 0.0
03/03:00pm 17.1 8.4 -0.5 30 7.5 WSW 35 50 19 27 1013.9 1013.9 0.0
03/02:30pm 18.4 9.8 0.1 29 8.0 WSW 35 48 19 26 1013.4 1013.4 0.0
03/02:00pm 18.0 10.8 0.4 30 7.7 WSW 28 39 15 21 1013.2 1013.2 0.0
03/01:30pm 18.2 10.9 -0.3 28 8.0 WNW 28 37 15 20 1013.0 1013.0 0.0
03/01:00pm 18.6 10.8 -0.7 27 8.3 WNW 30 39 16 21 1013.4 1013.4 0.0
03/12:30pm 18.4 12.1 -1.1 26 8.3 WNW 22 33 12 18 1013.5 1013.5 0.0
03/12:00pm 17.8 10.7 -1.1 27 8.0 WNW 26 43 14 23 1013.9 1013.9 0.0
03/11:30am 17.1 11.3 -0.2 31 7.4 WNW 20 33 11 18 1014.3 1014.3 0.0
03/11:00am 16.5 11.2 -0.5 31 7.2 WNW 17 22 9 12 1014.6 1014.6 0.0
03/10:30am 16.4 10.9 -1.9 28 7.5 NW 17 28 9 15 1015.2 1015.2 0.0
03/10:00am 15.9 10.0 -0.9 31 7.0 NW 20 30 11 16 1015.0 1015.0 0.0
03/09:30am 14.6 8.9 -0.9 34 6.4 NNW 19 24 10 13 1015.1 1015.1 0.0
03/09:00am 13.7 7.3 -1.8 34 6.2 NNW 22 30 12 16 1015.1 1015.1 0.0
03/08:30am 13.4 7.4 -1.6 35 6.0 NNW 20 26 11 14 1014.9 1014.9 0.0
03/08:00am 12.4 7.8 -1.0 39 5.4 N 13 17 7 9 1014.8 1014.8 0.0
03/07:30am 11.5 6.1 -1.1 41 5.0 NNW 17 20 9 11 1014.7 1014.7 0.0
03/07:00am 11.2 6.1 -1.9 40 5.1 NW 15 17 8 9 1014.5 1014.5 0.0
03/06:30am 10.2 5.2 -1.0 45 4.4 WNW 15 26 8 14 1014.3 1014.3 0.0
03/06:00am 9.9 5.0 -0.8 47 4.2 WSW 15 17 8 9 1014.3 1014.3 0.0
03/05:30am 10.0 4.3 -0.9 46 4.3 W 19 22 10 12 1013.9 1013.9 0.0
03/05:00am 10.2 3.1 -1.3 44 4.5 W 26 33 14 18 1013.6 1013.6 0.0
03/04:30am 10.4 1.9 -1.7 43 4.7 WSW 33 39 18 21 1013.3 1013.3 0.0
03/04:00am 10.7 2.7 -2.4 40 5.0 WSW 30 35 16 19 1013.3 1013.3 0.0
03/03:30am 10.8 1.9 -1.8 41 4.9 WSW 35 46 19 25 1013.2 1013.2 0.0
03/03:00am 11.2 2.3 -1.9 40 5.1 WSW 35 44 19 24 1013.5 1013.5 0.0
03/02:30am 11.5 3.2 -1.8 39 5.2 WSW 32 41 17 22 1013.5 1013.5 0.0
03/02:00am 12.3 6.1 -0.5 41 5.2 SW 22 30 12 16 1013.6 1013.6 0.0
03/01:30am 12.8 5.6 1.0 44 5.0 SW 28 32 15 17 1013.4 1013.4 0.0
03/01:00am 13.3 7.7 1.1 43 5.2 WSW 20 26 11 14 1013.2 1013.2 0.0
03/12:30am 14.0 8.6 4.7 53 4.3 WSW 22 28 12 15 1013.4 1013.4 0.0
03/12:00am 14.4 11.1 8.2 66 3.1 SW 15 19 8 10 1013.5 1013.5 0.0
 
Date/Time
EST
Temp
°C
App
Temp
°C
Dew
Point
Rel
Hum
%
Delta-T
°C
Wind Press
QNH
hPa
Press
MSL
hPa
Rain
since 9 am
mm
Dir
 
Spd
km/h
Gust
km/h
Spd
kts
Gust
kts
02/11:30pm 14.6 10.5 8.0 64 3.3 WSW 19 26 10 14 1013.1 1013.1 0.0
02/11:00pm 15.4 11.1 7.8 60 3.8 W 20 26 11 14 1013.1 1013.1 0.0
02/10:30pm 15.8 14.0 9.4 65 3.3 SSW 9 15 5 8 1013.5 1013.5 0.0
02/10:00pm 16.6 13.7 8.3 58 4.2 S 13 17 7 9 1013.6 1013.6 0.0
02/09:30pm 17.6 12.0 7.2 50 5.2 WNW 26 35 14 19 1013.0 1013.0 0.0
02/09:00pm 18.3 10.9 6.9 47 5.7 NW 35 44 19 24 1012.5 1012.5 0.0
02/08:30pm 19.1 10.8 5.9 42 6.5 WNW 39 48 21 26 1012.6 1012.6 0.0
02/08:00pm 20.1 12.8 4.6 36 7.5 WNW 32 44 17 24 1012.5 1012.5 0.0
02/07:30pm 19.9 13.8 4.9 37 7.3 WNW 26 32 14 17 1012.6 1012.6 0.0
02/07:00pm 20.1 12.9 4.9 37 7.4 W 32 41 17 22 1012.8 1012.8 0.0
02/06:30pm 20.5 13.6 4.7 35 7.7 WSW 30 35 16 19 1012.3 1012.3 0.0
02/06:00pm 21.4 16.0 4.7 33 8.2 W 22 33 12 18 1011.3 1011.3 0.0
02/05:30pm 22.5 17.1 4.4 30 8.9 WNW 22 30 12 16 1010.8 1010.8 0.0
02/05:00pm 23.8 17.1 3.8 27 9.8 NW 28 33 15 18 1010.2 1010.2 0.0
02/04:30pm 24.7 17.2 3.2 24 10.5 NW 32 44 17 24 1009.8 1009.8 0.0
02/04:00pm 25.1 17.6 3.2 24 10.7 NW 32 50 17 27 1009.7 1009.7 0.0
02/03:30pm 25.0 18.1 2.4 23 10.9 NNW 28 39 15 21 1009.5 1009.5 0.0
02/03:00pm 24.6 17.8 3.0 24 10.5 NNW 28 37 15 20 1009.8 1009.8 0.0
02/02:44pm 24.3 17.5 3.1 25 10.3 NW 28 44 15 24 1010.1 1010.1 0.0
02/02:30pm 23.6 19.1 4.4 28 9.5 NW 17 24 9 13 1010.2 1010.2 0.0
02/02:00pm 21.4 19.4 8.5 43 6.8 ENE 9 9 5 5 1010.4 1010.4 0.0
02/01:30pm 19.6 17.1 8.2 47 5.9 SSW 11 15 6 8 1011.0 1011.0 0.0
02/01:00pm 18.5 16.7 9.4 55 4.8 S 9 13 5 7 1011.6 1011.6 0.0
02/12:30pm 19.3 17.4 6.8 44 6.3 ENE 6 6 3 3 1011.8 1011.8 0.0
02/12:00pm 19.1 16.7 7.0 45 6.1 W 9 13 5 7 1012.6 1012.6 0.0
02/11:30am 19.1 16.4 5.7 41 6.6 NW 9 13 5 7 1012.9 1012.9 0.0
02/11:00am 16.8 14.9 7.6 54 4.6 W 7 9 4 5 1013.8 1013.8 0.0
02/10:30am 17.6 14.6 5.9 46 5.7 WSW 11 15 6 8 1014.5 1014.5 0.0
02/10:00am 15.6 13.6 7.1 57 4.2 WNW 7 9 4 5 1014.7 1014.7 0.0
02/09:30am 14.1 12.1 8.7 70 2.7 W 9 11 5 6 1015.2 1015.2 0.0
02/09:00am 13.9 10.9 9.4 74 2.3 SW 15 19 8 10 1015.4 1015.4 0.0
02/08:30am 13.6 11.4 7.9 68 2.8 WSW 9 11 5 6 1015.4 1015.4 0.0
02/08:00am 12.6 10.5 8.1 74 2.2 WSW 9 13 5 7 1015.5 1015.5 0.0
02/07:30am 11.9 9.5 7.1 72 2.3 SW 9 11 5 6 1015.5 1015.5 0.0
02/07:00am 12.2 9.8 7.2 71 2.4 WSW 9 13 5 7 1015.2 1015.2 0.0
02/06:30am 11.7 10.0 7.6 76 2.0 WSW 6 13 3 7 1015.1 1015.1 0.0
02/06:00am 12.0 10.5 7.0 71 2.4 WSW 4 7 2 4 1015.1 1015.1 0.0
02/05:30am 13.0 10.3 7.2 68 2.8 WSW 11 15 6 8 1015.2 1015.2 0.0
02/05:00am 12.9 10.3 7.8 71 2.5 W 11 11 6 6 1015.3 1015.3 0.0
02/04:30am 14.0 11.8 6.3 60 3.7 WNW 7 9 4 5 1015.2 1015.2 0.0
02/04:00am 14.4 12.2 6.0 57 4.0 WNW 7 7 4 4 1015.5 1015.5 0.0
02/03:30am 14.4 12.7 6.0 57 4.0 NNW 4 6 2 3 1015.5 1015.5 0.0
02/03:00am 14.8 12.2 6.0 55 4.2 NNW 9 13 5 7 1015.6 1015.6 0.0
02/02:30am 14.9 14.0 5.9 55 4.3 CALM 0 2 0 1 1016.0 1016.0 0.0
02/02:00am 14.1 12.6 10.7 80 1.8 SW 9 11 5 6 1016.4 1016.4 0.0
02/01:30am 14.3 11.6 5.4 55 4.2 NNW 9 11 5 6 1016.5 1016.5 0.0
02/01:00am 15.9 12.2 4.3 46 5.4 N 13 13 7 7 1016.4 1016.4 0.0
02/12:30am 16.4 12.2 3.9 43 5.8 NNW 15 17 8 9 1016.3 1016.3 0.0
02/12:00am 16.4 12.7 4.2 44 5.7 NNW 13 15 7 8 1016.5 1016.5 0.0
 
Date/Time
EST
Temp
°C
App
Temp
°C
Dew
Point
Rel
Hum
%
Delta-T
°C
Wind Press
QNH
hPa
Press
MSL
hPa
Rain
since 9 am
mm
Dir
 
Spd
km/h
Gust
km/h
Spd
kts
Gust
kts
01/11:30pm 16.4 15.2 4.7 46 5.5 CALM 0 0 0 0 1016.7 1016.7 0.0
01/11:00pm 16.7 15.7 5.4 47 5.4 CALM 0 0 0 0 1017.1 1017.1 0.0
01/10:30pm 16.7 14.8 6.5 51 5.0 N 6 9 3 5 1017.3 1017.3 0.0
01/10:00pm 18.4 15.9 4.0 38 6.8 E 6 7 3 4 1017.1 1017.1 0.0
01/09:30pm 18.8 15.6 3.1 35 7.3 NNW 9 13 5 7 1017.4 1017.4 0.0
01/09:00pm 19.1 15.1 2.6 33 7.6 N 13 17 7 9 1017.4 1017.4 0.0
01/08:30pm 18.5 14.1 2.9 35 7.2 N 15 17 8 9 1017.3 1017.3 0.0
01/08:00pm 18.7 13.8 2.3 33 7.5 NNW 17 22 9 12 1016.8 1016.8 0.0
01/07:30pm 19.1 13.9 2.3 32 7.7 N 19 22 10 12 1016.8 1016.8 0.0
01/07:00pm 20.0 15.0 1.5 29 8.4 N 17 20 9 11 1016.4 1016.4 0.0
01/06:30pm 20.0 15.3 1.2 28 8.5 N 15 17 8 9 1016.2 1016.2 0.0
01/06:00pm 19.9 15.3 1.3 29 8.4 N 15 17 8 9 1016.1 1016.1 0.0
01/05:30pm 19.7 14.1 1.0 28 8.4 N 20 24 11 13 1015.6 1015.6 0.0
01/05:00pm 20.7 14.1 -0.4 24 9.3 NNW 24 33 13 18 1015.3 1015.3 0.0
01/04:30pm 20.9 13.4 -1.2 22 9.6 NNW 28 37 15 20 1015.1 1015.1 0.0
01/04:00pm 21.3 13.4 -1.2 22 9.8 NNW 30 39 16 21 1015.0 1015.0 0.0
01/03:30pm 22.2 14.4 -0.9 21 10.2 NNW 30 39 16 21 1015.1 1015.1 0.0
01/03:00pm 21.9 13.0 -2.0 20 10.3 NW 35 46 19 25 1015.3 1015.3 0.0
01/02:30pm 22.4 14.0 -0.9 21 10.3 NW 33 43 18 23 1015.2 1015.2 0.0
01/02:07pm 22.3 13.1 -1.1 21 10.3 NW 37 57 20 31 1015.1 1015.1 0.0
01/02:00pm 22.9 14.5 -1.4 20 10.7 NW 33 43 18 23 1015.1 1015.1 0.0
01/01:30pm 22.3 11.9 -0.3 22 10.1 WNW 44 54 24 29 1015.3 1015.3 0.0

Other Formats:

Comma delimited format used in spreadsheet applications
http://www.bom.gov.au/fwo/IDN60801/IDN60801.94767.axf

JavaScript Object Notation format (JSON) in row-major order
http://www.bom.gov.au/fwo/IDN60801/IDN60801.94767.json